sensor_id;sensor_type;location;lat;lon;timestamp;temperature;humidity
35746;DHT22;21870;42.812;74.628;2023-11-21T00:01:41;9.80;99.90
35746;DHT22;21870;42.812;74.628;2023-11-21T00:04:07;9.30;99.90
35746;DHT22;21870;42.812;74.628;2023-11-21T00:06:33;9.30;99.90
35746;DHT22;21870;42.812;74.628;2023-11-21T00:09:00;9.20;99.90
35746;DHT22;21870;42.812;74.628;2023-11-21T00:11:26;9.30;99.90
35746;DHT22;21870;42.812;74.628;2023-11-21T00:13:52;9.20;99.90
35746;DHT22;21870;42.812;74.628;2023-11-21T00:16:18;9.20;99.90
35746;DHT22;21870;42.812;74.628;2023-11-21T00:18:44;9.10;99.90
35746;DHT22;21870;42.812;74.628;2023-11-21T00:21:12;9.10;99.90
35746;DHT22;21870;42.812;74.628;2023-11-21T00:23:38;9.10;99.90
35746;DHT22;21870;42.812;74.628;2023-11-21T00:26:04;9.10;99.90
35746;DHT22;21870;42.812;74.628;2023-11-21T00:28:30;9.10;99.90
35746;DHT22;21870;42.812;74.628;2023-11-21T00:30:59;9.00;99.90
35746;DHT22;21870;42.812;74.628;2023-11-21T00:33:25;9.10;99.90
35746;DHT22;21870;42.812;74.628;2023-11-21T00:35:53;9.10;99.90
35746;DHT22;21870;42.812;74.628;2023-11-21T00:38:19;9.00;99.90
35746;DHT22;21870;42.812;74.628;2023-11-21T00:40:46;8.90;99.90
35746;DHT22;21870;42.812;74.628;2023-11-21T00:43:12;8.90;99.90
35746;DHT22;21870;42.812;74.628;2023-11-21T00:45:38;8.90;99.90
35746;DHT22;21870;42.812;74.628;2023-11-21T00:48:05;8.90;99.90
35746;DHT22;21870;42.812;74.628;2023-11-21T00:50:34;8.80;99.90
35746;DHT22;21870;42.812;74.628;2023-11-21T00:53:00;8.80;99.90
35746;DHT22;21870;42.812;74.628;2023-11-21T00:55:26;8.80;99.90
35746;DHT22;21870;42.812;74.628;2023-11-21T00:57:53;8.80;99.90
35746;DHT22;21870;42.812;74.628;2023-11-21T01:00:19;8.80;99.90
35746;DHT22;21870;42.812;74.628;2023-11-21T01:02:45;8.80;99.90
35746;DHT22;21870;42.812;74.628;2023-11-21T01:05:12;8.80;99.90
35746;DHT22;21870;42.812;74.628;2023-11-21T01:07:38;8.90;99.90
35746;DHT22;21870;42.812;74.628;2023-11-21T01:10:05;8.80;99.90
35746;DHT22;21870;42.812;74.628;2023-11-21T01:12:35;8.80;99.90
35746;DHT22;21870;42.812;74.628;2023-11-21T01:15:01;8.80;99.90
35746;DHT22;21870;42.812;74.628;2023-11-21T01:17:28;8.80;99.90
35746;DHT22;21870;42.812;74.628;2023-11-21T01:19:54;8.70;99.90
35746;DHT22;21870;42.812;74.628;2023-11-21T01:22:20;8.60;99.90
35746;DHT22;21870;42.812;74.628;2023-11-21T01:24:54;8.60;99.90
35746;DHT22;21870;42.812;74.628;2023-11-21T01:27:20;8.60;99.90
35746;DHT22;21870;42.812;74.628;2023-11-21T01:29:46;8.60;99.90
35746;DHT22;21870;42.812;74.628;2023-11-21T01:32:12;8.60;99.90
35746;DHT22;21870;42.812;74.628;2023-11-21T01:34:38;8.60;99.90
35746;DHT22;21870;42.812;74.628;2023-11-21T01:37:05;8.70;99.90
35746;DHT22;21870;42.812;74.628;2023-11-21T01:39:31;8.60;99.90
35746;DHT22;21870;42.812;74.628;2023-11-21T01:41:57;8.50;99.90
35746;DHT22;21870;42.812;74.628;2023-11-21T01:44:24;8.50;99.90
35746;DHT22;21870;42.812;74.628;2023-11-21T01:46:51;8.40;99.90
35746;DHT22;21870;42.812;74.628;2023-11-21T01:49:17;8.30;99.90
35746;DHT22;21870;42.812;74.628;2023-11-21T01:51:48;8.40;99.90
35746;DHT22;21870;42.812;74.628;2023-11-21T01:54:19;8.50;99.90
35746;DHT22;21870;42.812;74.628;2023-11-21T01:56:46;8.40;99.90
35746;DHT22;21870;42.812;74.628;2023-11-21T01:59:18;8.40;99.90
35746;DHT22;21870;42.812;74.628;2023-11-21T02:01:46;8.50;99.90
35746;DHT22;21870;42.812;74.628;2023-11-21T02:04:13;8.30;99.90
35746;DHT22;21870;42.812;74.628;2023-11-21T02:06:39;8.50;99.90
35746;DHT22;21870;42.812;74.628;2023-11-21T02:09:05;8.60;99.90
35746;DHT22;21870;42.812;74.628;2023-11-21T02:11:31;8.80;99.90
35746;DHT22;21870;42.812;74.628;2023-11-21T02:14:00;8.90;99.90
35746;DHT22;21870;42.812;74.628;2023-11-21T02:16:27;9.10;99.90
35746;DHT22;21870;42.812;74.628;2023-11-21T02:18:56;9.20;99.90
35746;DHT22;21870;42.812;74.628;2023-11-21T02:21:24;9.40;99.90
35746;DHT22;21870;42.812;74.628;2023-11-21T02:23:50;9.50;99.90
35746;DHT22;21870;42.812;74.628;2023-11-21T02:26:17;9.40;99.90
35746;DHT22;21870;42.812;74.628;2023-11-21T02:28:43;9.20;99.90
35746;DHT22;21870;42.812;74.628;2023-11-21T02:31:09;9.10;99.90
35746;DHT22;21870;42.812;74.628;2023-11-21T02:33:35;9.10;99.90
35746;DHT22;21870;42.812;74.628;2023-11-21T02:36:02;9.20;99.90
35746;DHT22;21870;42.812;74.628;2023-11-21T02:38:29;9.20;99.90
35746;DHT22;21870;42.812;74.628;2023-11-21T02:40:57;9.30;99.90
35746;DHT22;21870;42.812;74.628;2023-11-21T02:43:23;9.40;99.90
35746;DHT22;21870;42.812;74.628;2023-11-21T02:45:49;9.50;99.90
35746;DHT22;21870;42.812;74.628;2023-11-21T02:48:15;9.70;99.90
35746;DHT22;21870;42.812;74.628;2023-11-21T02:50:41;10.00;99.90
35746;DHT22;21870;42.812;74.628;2023-11-21T02:53:09;10.30;99.90
35746;DHT22;21870;42.812;74.628;2023-11-21T02:55:36;10.50;99.90
35746;DHT22;21870;42.812;74.628;2023-11-21T02:58:02;10.60;99.90
35746;DHT22;21870;42.812;74.628;2023-11-21T03:00:31;10.90;99.90
35746;DHT22;21870;42.812;74.628;2023-11-21T03:02:58;11.00;99.90
35746;DHT22;21870;42.812;74.628;2023-11-21T03:05:24;11.20;99.90
35746;DHT22;21870;42.812;74.628;2023-11-21T03:07:50;11.40;99.90
35746;DHT22;21870;42.812;74.628;2023-11-21T03:10:16;11.60;99.90
35746;DHT22;21870;42.812;74.628;2023-11-21T03:12:42;11.60;99.90
35746;DHT22;21870;42.812;74.628;2023-11-21T03:15:08;11.80;99.90
35746;DHT22;21870;42.812;74.628;2023-11-21T03:17:34;11.90;99.90
35746;DHT22;21870;42.812;74.628;2023-11-21T03:20:01;12.10;99.90
35746;DHT22;21870;42.812;74.628;2023-11-21T03:22:27;12.20;99.90
35746;DHT22;21870;42.812;74.628;2023-11-21T03:24:53;12.30;99.90
35746;DHT22;21870;42.812;74.628;2023-11-21T03:27:19;12.50;99.90
35746;DHT22;21870;42.812;74.628;2023-11-21T03:29:45;12.80;99.90
35746;DHT22;21870;42.812;74.628;2023-11-21T03:32:12;13.10;99.90
35746;DHT22;21870;42.812;74.628;2023-11-21T03:34:54;13.50;99.90
35746;DHT22;21870;42.812;74.628;2023-11-21T03:37:21;13.80;99.90
35746;DHT22;21870;42.812;74.628;2023-11-21T03:39:47;14.10;99.90
35746;DHT22;21870;42.812;74.628;2023-11-21T03:42:13;14.40;99.90
35746;DHT22;21870;42.812;74.628;2023-11-21T03:44:39;14.60;99.90
35746;DHT22;21870;42.812;74.628;2023-11-21T03:47:05;14.90;99.90
35746;DHT22;21870;42.812;74.628;2023-11-21T03:49:31;15.10;99.90
35746;DHT22;21870;42.812;74.628;2023-11-21T03:51:57;15.40;99.90
35746;DHT22;21870;42.812;74.628;2023-11-21T03:54:23;15.60;99.90
35746;DHT22;21870;42.812;74.628;2023-11-21T03:56:50;15.80;99.90
35746;DHT22;21870;42.812;74.628;2023-11-21T03:59:21;16.00;99.90
35746;DHT22;21870;42.812;74.628;2023-11-21T04:01:50;16.30;99.90
35746;DHT22;21870;42.812;74.628;2023-11-21T04:04:16;16.50;99.90
35746;DHT22;21870;42.812;74.628;2023-11-21T04:06:42;16.70;99.90
35746;DHT22;21870;42.812;74.628;2023-11-21T04:09:08;16.90;99.20
35746;DHT22;21870;42.812;74.628;2023-11-21T04:11:35;17.10;98.80
35746;DHT22;21870;42.812;74.628;2023-11-21T04:14:01;17.30;97.90
35746;DHT22;21870;42.812;74.628;2023-11-21T04:16:27;17.50;97.40
35746;DHT22;21870;42.812;74.628;2023-11-21T04:18:53;17.80;97.00
35746;DHT22;21870;42.812;74.628;2023-11-21T04:21:19;18.00;95.70
35746;DHT22;21870;42.812;74.628;2023-11-21T04:23:45;18.20;95.40
35746;DHT22;21870;42.812;74.628;2023-11-21T04:26:12;18.40;93.80
35746;DHT22;21870;42.812;74.628;2023-11-21T04:28:38;18.60;92.20
35746;DHT22;21870;42.812;74.628;2023-11-21T04:31:04;18.80;92.60
35746;DHT22;21870;42.812;74.628;2023-11-21T04:33:31;18.90;93.50
35746;DHT22;21870;42.812;74.628;2023-11-21T04:35:57;19.00;92.60
35746;DHT22;21870;42.812;74.628;2023-11-21T04:38:23;19.20;92.00
35746;DHT22;21870;42.812;74.628;2023-11-21T04:40:49;19.40;90.30
35746;DHT22;21870;42.812;74.628;2023-11-21T04:43:15;19.50;88.30
35746;DHT22;21870;42.812;74.628;2023-11-21T04:45:41;19.60;90.00
35746;DHT22;21870;42.812;74.628;2023-11-21T04:48:08;19.70;89.00
35746;DHT22;21870;42.812;74.628;2023-11-21T04:50:34;19.80;89.30
35746;DHT22;21870;42.812;74.628;2023-11-21T04:53:00;20.00;87.60
35746;DHT22;21870;42.812;74.628;2023-11-21T04:55:26;20.10;87.60
35746;DHT22;21870;42.812;74.628;2023-11-21T04:57:54;20.10;86.00
35746;DHT22;21870;42.812;74.628;2023-11-21T05:00:20;20.30;86.30
35746;DHT22;21870;42.812;74.628;2023-11-21T05:02:47;20.40;86.20
35746;DHT22;21870;42.812;74.628;2023-11-21T05:05:13;20.70;83.30
35746;DHT22;21870;42.812;74.628;2023-11-21T05:07:40;20.80;83.00
35746;DHT22;21870;42.812;74.628;2023-11-21T05:10:08;20.90;82.10
35746;DHT22;21870;42.812;74.628;2023-11-21T05:12:37;21.20;81.90
35746;DHT22;21870;42.812;74.628;2023-11-21T05:15:07;21.30;80.60
35746;DHT22;21870;42.812;74.628;2023-11-21T05:17:36;21.30;80.40
35746;DHT22;21870;42.812;74.628;2023-11-21T05:20:03;21.40;79.00
35746;DHT22;21870;42.812;74.628;2023-11-21T05:22:30;21.40;80.30
35746;DHT22;21870;42.812;74.628;2023-11-21T05:24:56;21.60;81.20
35746;DHT22;21870;42.812;74.628;2023-11-21T05:27:22;21.80;80.30
35746;DHT22;21870;42.812;74.628;2023-11-21T05:29:48;22.00;79.30
35746;DHT22;21870;42.812;74.628;2023-11-21T05:32:14;22.30;79.90
35746;DHT22;21870;42.812;74.628;2023-11-21T05:34:40;22.60;79.60
35746;DHT22;21870;42.812;74.628;2023-11-21T05:37:07;22.70;79.40
35746;DHT22;21870;42.812;74.628;2023-11-21T05:39:33;22.80;79.20
35746;DHT22;21870;42.812;74.628;2023-11-21T05:41:59;22.90;79.40
35746;DHT22;21870;42.812;74.628;2023-11-21T05:44:25;22.90;78.40
35746;DHT22;21870;42.812;74.628;2023-11-21T05:46:51;23.00;79.30
35746;DHT22;21870;42.812;74.628;2023-11-21T05:49:17;23.10;79.50
35746;DHT22;21870;42.812;74.628;2023-11-21T05:51:47;23.10;80.10
35746;DHT22;21870;42.812;74.628;2023-11-21T05:54:13;23.20;80.10
35746;DHT22;21870;42.812;74.628;2023-11-21T05:56:39;23.20;80.30
35746;DHT22;21870;42.812;74.628;2023-11-21T05:59:05;23.30;79.70
35746;DHT22;21870;42.812;74.628;2023-11-21T06:01:32;23.50;78.40
35746;DHT22;21870;42.812;74.628;2023-11-21T06:03:58;23.50;78.30
35746;DHT22;21870;42.812;74.628;2023-11-21T06:06:24;23.80;79.80
35746;DHT22;21870;42.812;74.628;2023-11-21T06:08:51;23.90;80.90
35746;DHT22;21870;42.812;74.628;2023-11-21T06:11:17;24.10;78.90
35746;DHT22;21870;42.812;74.628;2023-11-21T06:13:44;24.10;78.70
35746;DHT22;21870;42.812;74.628;2023-11-21T06:16:10;24.20;79.00
35746;DHT22;21870;42.812;74.628;2023-11-21T06:18:38;24.30;80.40
35746;DHT22;21870;42.812;74.628;2023-11-21T06:21:06;24.50;77.80
35746;DHT22;21870;42.812;74.628;2023-11-21T06:23:35;24.70;80.60
35746;DHT22;21870;42.812;74.628;2023-11-21T06:26:01;24.50;80.80
35746;DHT22;21870;42.812;74.628;2023-11-21T06:28:27;24.60;80.70
35746;DHT22;21870;42.812;74.628;2023-11-21T06:30:53;24.80;79.40
35746;DHT22;21870;42.812;74.628;2023-11-21T06:33:19;24.80;79.10
35746;DHT22;21870;42.812;74.628;2023-11-21T06:35:47;24.80;78.20
35746;DHT22;21870;42.812;74.628;2023-11-21T06:38:13;24.60;79.40
35746;DHT22;21870;42.812;74.628;2023-11-21T06:40:39;24.60;79.10
35746;DHT22;21870;42.812;74.628;2023-11-21T06:43:06;24.70;80.10
35746;DHT22;21870;42.812;74.628;2023-11-21T06:45:33;24.80;80.10
35746;DHT22;21870;42.812;74.628;2023-11-21T06:48:02;25.10;79.10
35746;DHT22;21870;42.812;74.628;2023-11-21T06:50:28;25.20;77.80
35746;DHT22;21870;42.812;74.628;2023-11-21T06:52:54;25.20;79.00
35746;DHT22;21870;42.812;74.628;2023-11-21T06:55:20;25.20;79.10
35746;DHT22;21870;42.812;74.628;2023-11-21T06:57:46;25.40;78.60
35746;DHT22;21870;42.812;74.628;2023-11-21T07:00:15;25.40;77.50
35746;DHT22;21870;42.812;74.628;2023-11-21T07:02:45;25.60;76.00
35746;DHT22;21870;42.812;74.628;2023-11-21T07:05:11;25.90;76.30
35746;DHT22;21870;42.812;74.628;2023-11-21T07:07:39;26.10;77.30
35746;DHT22;21870;42.812;74.628;2023-11-21T07:10:06;25.80;78.20
35746;DHT22;21870;42.812;74.628;2023-11-21T07:12:33;25.70;78.50
35746;DHT22;21870;42.812;74.628;2023-11-21T07:15:00;25.70;78.80
35746;DHT22;21870;42.812;74.628;2023-11-21T07:17:26;25.70;78.10
35746;DHT22;21870;42.812;74.628;2023-11-21T07:19:52;26.00;78.20
35746;DHT22;21870;42.812;74.628;2023-11-21T07:22:19;26.20;78.60
35746;DHT22;21870;42.812;74.628;2023-11-21T07:24:50;26.10;78.50
35746;DHT22;21870;42.812;74.628;2023-11-21T07:27:17;26.30;77.90
35746;DHT22;21870;42.812;74.628;2023-11-21T07:29:43;26.60;78.20
35746;DHT22;21870;42.812;74.628;2023-11-21T07:32:09;26.70;76.50
35746;DHT22;21870;42.812;74.628;2023-11-21T07:34:36;26.80;78.20
35746;DHT22;21870;42.812;74.628;2023-11-21T07:37:03;27.00;76.40
35746;DHT22;21870;42.812;74.628;2023-11-21T07:39:29;26.80;75.20
35746;DHT22;21870;42.812;74.628;2023-11-21T07:41:57;26.80;75.60
35746;DHT22;21870;42.812;74.628;2023-11-21T07:44:23;26.90;75.60
35746;DHT22;21870;42.812;74.628;2023-11-21T07:46:50;26.80;75.70
35746;DHT22;21870;42.812;74.628;2023-11-21T07:49:16;26.60;74.90
35746;DHT22;21870;42.812;74.628;2023-11-21T07:51:43;26.70;74.80
35746;DHT22;21870;42.812;74.628;2023-11-21T07:54:09;26.70;83.30
35746;DHT22;21870;42.812;74.628;2023-11-21T07:56:36;26.90;85.50
35746;DHT22;21870;42.812;74.628;2023-11-21T07:59:02;27.00;87.90
35746;DHT22;21870;42.812;74.628;2023-11-21T08:01:28;27.00;88.20
35746;DHT22;21870;42.812;74.628;2023-11-21T08:03:54;27.00;88.70
35746;DHT22;21870;42.812;74.628;2023-11-21T08:06:23;27.10;88.00
35746;DHT22;21870;42.812;74.628;2023-11-21T08:08:51;27.10;87.90
35746;DHT22;21870;42.812;74.628;2023-11-21T08:11:17;27.10;88.90
35746;DHT22;21870;42.812;74.628;2023-11-21T08:13:43;27.10;90.00
35746;DHT22;21870;42.812;74.628;2023-11-21T08:16:09;27.10;89.80
35746;DHT22;21870;42.812;74.628;2023-11-21T08:18:35;27.20;90.00
35746;DHT22;21870;42.812;74.628;2023-11-21T08:21:01;27.10;88.30
35746;DHT22;21870;42.812;74.628;2023-11-21T08:23:28;27.20;88.10
35746;DHT22;21870;42.812;74.628;2023-11-21T08:25:55;27.40;88.60
35746;DHT22;21870;42.812;74.628;2023-11-21T08:28:21;27.40;90.00
35746;DHT22;21870;42.812;74.628;2023-11-21T08:30:52;27.50;89.70
35746;DHT22;21870;42.812;74.628;2023-11-21T08:33:19;27.40;89.50
35746;DHT22;21870;42.812;74.628;2023-11-21T08:35:45;27.30;88.60
35746;DHT22;21870;42.812;74.628;2023-11-21T08:38:12;27.30;89.40
35746;DHT22;21870;42.812;74.628;2023-11-21T08:40:38;27.60;88.10
35746;DHT22;21870;42.812;74.628;2023-11-21T08:43:04;27.50;87.90
35746;DHT22;21870;42.812;74.628;2023-11-21T08:45:31;27.40;88.10
35746;DHT22;21870;42.812;74.628;2023-11-21T08:48:00;27.30;89.10
35746;DHT22;21870;42.812;74.628;2023-11-21T08:50:26;27.50;88.50
35746;DHT22;21870;42.812;74.628;2023-11-21T08:52:52;27.50;86.80
35746;DHT22;21870;42.812;74.628;2023-11-21T08:55:18;27.60;86.80
35746;DHT22;21870;42.812;74.628;2023-11-21T08:57:45;27.50;88.60
35746;DHT22;21870;42.812;74.628;2023-11-21T09:00:14;27.20;88.80
35746;DHT22;21870;42.812;74.628;2023-11-21T09:02:43;27.00;88.50
35746;DHT22;21870;42.812;74.628;2023-11-21T09:05:10;27.00;88.20
35746;DHT22;21870;42.812;74.628;2023-11-21T09:07:38;26.90;88.40
35746;DHT22;21870;42.812;74.628;2023-11-21T09:10:04;27.00;89.00
35746;DHT22;21870;42.812;74.628;2023-11-21T09:12:36;26.80;89.50
35746;DHT22;21870;42.812;74.628;2023-11-21T09:15:04;26.90;88.30
35746;DHT22;21870;42.812;74.628;2023-11-21T09:17:33;26.70;88.80
35746;DHT22;21870;42.812;74.628;2023-11-21T09:20:00;26.50;89.60
35746;DHT22;21870;42.812;74.628;2023-11-21T09:22:26;26.50;90.00
35746;DHT22;21870;42.812;74.628;2023-11-21T09:24:55;26.50;90.00
35746;DHT22;21870;42.812;74.628;2023-11-21T09:27:23;26.50;91.30
35746;DHT22;21870;42.812;74.628;2023-11-21T09:29:51;26.50;91.70
35746;DHT22;21870;42.812;74.628;2023-11-21T09:32:18;26.40;92.10
35746;DHT22;21870;42.812;74.628;2023-11-21T09:34:45;26.20;92.40
35746;DHT22;21870;42.812;74.628;2023-11-21T09:37:11;26.30;92.70
35746;DHT22;21870;42.812;74.628;2023-11-21T09:39:37;26.30;93.20
35746;DHT22;21870;42.812;74.628;2023-11-21T09:44:57;26.10;92.90
35746;DHT22;21870;42.812;74.628;2023-11-21T09:47:27;26.00;93.90
35746;DHT22;21870;42.812;74.628;2023-11-21T09:49:54;25.90;93.30
35746;DHT22;21870;42.812;74.628;2023-11-21T09:52:26;25.80;93.60
35746;DHT22;21870;42.812;74.628;2023-11-21T09:54:53;25.80;93.90
35746;DHT22;21870;42.812;74.628;2023-11-21T09:57:24;25.80;94.10
35746;DHT22;21870;42.812;74.628;2023-11-21T09:59:54;25.60;93.70
35746;DHT22;21870;42.812;74.628;2023-11-21T10:02:29;25.60;93.70
35746;DHT22;21870;42.812;74.628;2023-11-21T10:04:56;25.40;94.20
35746;DHT22;21870;42.812;74.628;2023-11-21T10:07:23;25.20;94.40
35746;DHT22;21870;42.812;74.628;2023-11-21T10:09:51;25.40;94.00
35746;DHT22;21870;42.812;74.628;2023-11-21T10:12:17;25.50;94.70
35746;DHT22;21870;42.812;74.628;2023-11-21T10:14:48;25.60;94.30
35746;DHT22;21870;42.812;74.628;2023-11-21T10:17:15;25.50;94.30
35746;DHT22;21870;42.812;74.628;2023-11-21T10:19:47;25.50;93.70
35746;DHT22;21870;42.812;74.628;2023-11-21T10:22:16;25.30;94.20
35746;DHT22;21870;42.812;74.628;2023-11-21T10:24:43;25.40;94.30
35746;DHT22;21870;42.812;74.628;2023-11-21T10:27:09;25.50;94.30
35746;DHT22;21870;42.812;74.628;2023-11-21T10:29:35;25.50;94.00
35746;DHT22;21870;42.812;74.628;2023-11-21T10:32:04;25.50;93.90
35746;DHT22;21870;42.812;74.628;2023-11-21T10:34:31;25.50;93.90
35746;DHT22;21870;42.812;74.628;2023-11-21T10:36:57;25.40;93.40
35746;DHT22;21870;42.812;74.628;2023-11-21T10:39:24;25.40;93.40
35746;DHT22;21870;42.812;74.628;2023-11-21T10:41:56;25.50;93.40
35746;DHT22;21870;42.812;74.628;2023-11-21T10:44:22;25.30;93.00
35746;DHT22;21870;42.812;74.628;2023-11-21T10:46:56;25.30;93.20
35746;DHT22;21870;42.812;74.628;2023-11-21T10:49:24;25.20;93.20
35746;DHT22;21870;42.812;74.628;2023-11-21T10:51:52;25.20;93.50
35746;DHT22;21870;42.812;74.628;2023-11-21T10:54:23;25.10;93.50
35746;DHT22;21870;42.812;74.628;2023-11-21T10:56:53;25.10;94.60
35746;DHT22;21870;42.812;74.628;2023-11-21T10:59:23;25.00;94.60
35746;DHT22;21870;42.812;74.628;2023-11-21T11:01:51;25.00;94.70
35746;DHT22;21870;42.812;74.628;2023-11-21T11:04:19;24.90;94.90
35746;DHT22;21870;42.812;74.628;2023-11-21T11:06:52;24.70;95.00
35746;DHT22;21870;42.812;74.628;2023-11-21T11:09:19;24.40;95.30
35746;DHT22;21870;42.812;74.628;2023-11-21T11:11:46;23.80;95.90
35746;DHT22;21870;42.812;74.628;2023-11-21T11:14:13;23.20;96.50
35746;DHT22;21870;42.812;74.628;2023-11-21T11:16:40;22.70;98.10
35746;DHT22;21870;42.812;74.628;2023-11-21T11:19:10;22.20;99.50
35746;DHT22;21870;42.812;74.628;2023-11-21T11:24:31;21.30;99.90
35746;DHT22;21870;42.812;74.628;2023-11-21T11:27:15;20.60;99.90
35746;DHT22;21870;42.812;74.628;2023-11-21T11:30:20;20.10;99.90
35746;DHT22;21870;42.812;74.628;2023-11-21T11:38:33;19.10;99.90
35746;DHT22;21870;42.812;74.628;2023-11-21T11:41:02;18.80;99.90
35746;DHT22;21870;42.812;74.628;2023-11-21T11:43:30;18.50;99.90
35746;DHT22;21870;42.812;74.628;2023-11-21T11:45:59;18.20;99.90
35746;DHT22;21870;42.812;74.628;2023-11-21T11:48:25;17.90;99.90
35746;DHT22;21870;42.812;74.628;2023-11-21T11:53:37;17.70;99.90
35746;DHT22;21870;42.812;74.628;2023-11-21T11:58:53;17.40;99.90
35746;DHT22;21870;42.812;74.628;2023-11-21T12:01:20;17.20;99.90
35746;DHT22;21870;42.812;74.628;2023-11-21T12:06:51;16.90;99.90
35746;DHT22;21870;42.812;74.628;2023-11-21T12:09:22;16.80;99.90
35746;DHT22;21870;42.812;74.628;2023-11-21T12:11:50;16.70;99.90
35746;DHT22;21870;42.812;74.628;2023-11-21T12:14:16;16.60;99.90
35746;DHT22;21870;42.812;74.628;2023-11-21T12:16:43;16.40;99.90
35746;DHT22;21870;42.812;74.628;2023-11-21T12:19:13;16.10;99.90
35746;DHT22;21870;42.812;74.628;2023-11-21T12:21:40;16.00;99.90
35746;DHT22;21870;42.812;74.628;2023-11-21T12:24:14;15.80;99.90
35746;DHT22;21870;42.812;74.628;2023-11-21T12:26:42;15.80;99.90
35746;DHT22;21870;42.812;74.628;2023-11-21T12:29:08;15.70;99.90
35746;DHT22;21870;42.812;74.628;2023-11-21T12:31:35;15.60;99.90
35746;DHT22;21870;42.812;74.628;2023-11-21T12:34:01;15.70;99.90
35746;DHT22;21870;42.812;74.628;2023-11-21T12:36:28;15.70;99.90
35746;DHT22;21870;42.812;74.628;2023-11-21T12:38:56;15.60;99.90
35746;DHT22;21870;42.812;74.628;2023-11-21T12:41:22;15.60;99.90
35746;DHT22;21870;42.812;74.628;2023-11-21T12:43:48;15.60;99.90
35746;DHT22;21870;42.812;74.628;2023-11-21T12:46:15;15.50;99.90
35746;DHT22;21870;42.812;74.628;2023-11-21T12:48:44;15.50;99.90
35746;DHT22;21870;42.812;74.628;2023-11-21T12:51:11;15.60;99.90
35746;DHT22;21870;42.812;74.628;2023-11-21T12:53:38;15.60;99.90
35746;DHT22;21870;42.812;74.628;2023-11-21T12:56:11;15.60;99.90
35746;DHT22;21870;42.812;74.628;2023-11-21T12:58:39;15.50;99.90
35746;DHT22;21870;42.812;74.628;2023-11-21T13:01:06;15.20;99.90
35746;DHT22;21870;42.812;74.628;2023-11-21T13:03:38;15.20;99.90
35746;DHT22;21870;42.812;74.628;2023-11-21T13:06:06;15.20;99.90
35746;DHT22;21870;42.812;74.628;2023-11-21T13:08:33;15.10;99.90
35746;DHT22;21870;42.812;74.628;2023-11-21T13:10:59;15.10;99.90
35746;DHT22;21870;42.812;74.628;2023-11-21T13:13:29;15.00;99.90
35746;DHT22;21870;42.812;74.628;2023-11-21T13:15:57;15.00;99.90
35746;DHT22;21870;42.812;74.628;2023-11-21T13:18:28;15.00;99.90
35746;DHT22;21870;42.812;74.628;2023-11-21T13:20:56;15.00;99.90
35746;DHT22;21870;42.812;74.628;2023-11-21T13:23:24;15.10;99.90
35746;DHT22;21870;42.812;74.628;2023-11-21T13:25:51;15.10;99.90
35746;DHT22;21870;42.812;74.628;2023-11-21T13:28:18;15.00;99.90
35746;DHT22;21870;42.812;74.628;2023-11-21T13:30:47;15.00;99.90
35746;DHT22;21870;42.812;74.628;2023-11-21T13:33:14;15.10;99.90
35746;DHT22;21870;42.812;74.628;2023-11-21T13:35:52;15.00;99.90
35746;DHT22;21870;42.812;74.628;2023-11-21T13:38:19;15.00;99.90
35746;DHT22;21870;42.812;74.628;2023-11-21T13:40:50;15.00;99.90
35746;DHT22;21870;42.812;74.628;2023-11-21T13:43:20;14.90;99.90
35746;DHT22;21870;42.812;74.628;2023-11-21T13:45:48;14.60;99.90
35746;DHT22;21870;42.812;74.628;2023-11-21T13:48:38;14.50;99.90
35746;DHT22;21870;42.812;74.628;2023-11-21T13:51:08;14.60;99.90
35746;DHT22;21870;42.812;74.628;2023-11-21T13:53:45;14.50;99.90
35746;DHT22;21870;42.812;74.628;2023-11-21T13:56:14;14.50;99.90
35746;DHT22;21870;42.812;74.628;2023-11-21T13:58:45;14.30;99.90
35746;DHT22;21870;42.812;74.628;2023-11-21T14:01:18;14.30;99.90
35746;DHT22;21870;42.812;74.628;2023-11-21T14:03:57;14.30;99.90
35746;DHT22;21870;42.812;74.628;2023-11-21T14:06:34;14.40;99.90
35746;DHT22;21870;42.812;74.628;2023-11-21T14:09:05;14.40;99.90
35746;DHT22;21870;42.812;74.628;2023-11-21T14:11:33;14.50;99.90
35746;DHT22;21870;42.812;74.628;2023-11-21T14:14:00;14.60;99.90
35746;DHT22;21870;42.812;74.628;2023-11-21T14:16:26;14.60;99.90
35746;DHT22;21870;42.812;74.628;2023-11-21T14:18:52;14.60;99.90
35746;DHT22;21870;42.812;74.628;2023-11-21T14:21:24;14.40;99.90
35746;DHT22;21870;42.812;74.628;2023-11-21T14:23:50;14.30;99.90
35746;DHT22;21870;42.812;74.628;2023-11-21T14:26:16;14.00;99.90
35746;DHT22;21870;42.812;74.628;2023-11-21T14:28:43;13.70;99.90
35746;DHT22;21870;42.812;74.628;2023-11-21T14:31:10;13.70;99.90
35746;DHT22;21870;42.812;74.628;2023-11-21T14:33:40;13.70;99.90
35746;DHT22;21870;42.812;74.628;2023-11-21T14:36:07;13.60;99.90
35746;DHT22;21870;42.812;74.628;2023-11-21T14:38:36;13.60;99.90
35746;DHT22;21870;42.812;74.628;2023-11-21T14:41:06;13.40;99.90
35746;DHT22;21870;42.812;74.628;2023-11-21T14:43:37;13.50;99.90
35746;DHT22;21870;42.812;74.628;2023-11-21T14:46:04;13.40;99.90
35746;DHT22;21870;42.812;74.628;2023-11-21T14:48:36;13.40;99.90
35746;DHT22;21870;42.812;74.628;2023-11-21T14:51:11;13.30;99.90
35746;DHT22;21870;42.812;74.628;2023-11-21T14:53:37;13.20;99.90
35746;DHT22;21870;42.812;74.628;2023-11-21T14:56:16;13.20;99.90
35746;DHT22;21870;42.812;74.628;2023-11-21T14:58:51;13.20;99.90
35746;DHT22;21870;42.812;74.628;2023-11-21T15:01:18;13.30;99.90
35746;DHT22;21870;42.812;74.628;2023-11-21T15:03:56;13.30;99.90
35746;DHT22;21870;42.812;74.628;2023-11-21T15:06:22;13.20;99.90
35746;DHT22;21870;42.812;74.628;2023-11-21T15:08:58;13.20;99.90
35746;DHT22;21870;42.812;74.628;2023-11-21T15:11:36;12.90;99.90
35746;DHT22;21870;42.812;74.628;2023-11-21T15:14:04;12.80;99.90
35746;DHT22;21870;42.812;74.628;2023-11-21T15:16:38;12.80;99.90
35746;DHT22;21870;42.812;74.628;2023-11-21T15:19:11;13.00;99.90
35746;DHT22;21870;42.812;74.628;2023-11-21T15:21:44;13.00;99.90
35746;DHT22;21870;42.812;74.628;2023-11-21T15:24:12;13.20;99.90
35746;DHT22;21870;42.812;74.628;2023-11-21T15:26:38;13.20;99.90
35746;DHT22;21870;42.812;74.628;2023-11-21T15:29:05;13.00;99.90
35746;DHT22;21870;42.812;74.628;2023-11-21T15:31:31;12.90;99.90
35746;DHT22;21870;42.812;74.628;2023-11-21T15:33:57;12.80;99.90
35746;DHT22;21870;42.812;74.628;2023-11-21T15:36:26;12.70;99.90
35746;DHT22;21870;42.812;74.628;2023-11-21T15:38:53;12.60;99.90
35746;DHT22;21870;42.812;74.628;2023-11-21T15:41:19;12.60;99.90